createdAt,value
2022-07-28T00:00:04.013Z,2.47
2022-07-28T00:02:31.693Z,0.93
2022-07-28T00:04:58.739Z,2.75
2022-07-28T00:07:26.439Z,2.10
2022-07-28T00:09:58.241Z,1.88
2022-07-28T00:12:27.359Z,0.70
2022-07-28T00:14:54.291Z,0.57
2022-07-28T00:17:21.286Z,1.10
2022-07-28T00:19:48.170Z,1.02
2022-07-28T00:22:15.119Z,0.82
2022-07-28T00:24:42.443Z,3.00
2022-07-28T00:27:09.456Z,0.93
2022-07-28T00:29:42.563Z,0.85
2022-07-28T00:32:17.452Z,1.35
2022-07-28T00:34:45.088Z,0.68
2022-07-28T00:37:14.550Z,0.52
2022-07-28T00:39:42.810Z,1.15
2022-07-28T00:44:54.717Z,0.90
2022-07-28T00:47:21.600Z,0.55
2022-07-28T00:49:50.389Z,1.02
2022-07-28T00:52:18.499Z,2.10
2022-07-28T00:54:45.539Z,2.35
2022-07-28T00:57:12.558Z,1.77
2022-07-28T00:59:39.497Z,1.20
2022-07-28T01:02:06.917Z,1.08
2022-07-28T01:04:34.015Z,0.95
2022-07-28T01:07:23.781Z,1.00
2022-07-28T01:10:12.483Z,1.25
2022-07-28T01:12:53.047Z,1.60
2022-07-28T01:15:46.875Z,0.73
2022-07-28T01:18:20.589Z,0.70
2022-07-28T01:20:52.643Z,0.70
2022-07-28T01:23:28.542Z,1.13
2022-07-28T01:26:32.852Z,0.50
2022-07-28T01:29:34.947Z,1.08
2022-07-28T01:32:23.453Z,1.35
2022-07-28T01:35:00.863Z,2.55
2022-07-28T01:37:32.808Z,0.40
2022-07-28T01:40:05.430Z,0.50
2022-07-28T01:42:45.160Z,1.00
2022-07-28T01:45:14.108Z,0.82
2022-07-28T01:47:44.995Z,0.55
2022-07-28T01:50:34.115Z,1.02
2022-07-28T01:53:01.954Z,1.10
2022-07-28T01:55:29.887Z,0.77
2022-07-28T01:57:57.673Z,1.00
2022-07-28T02:00:27.693Z,1.02
2022-07-28T02:02:57.254Z,0.95
2022-07-28T02:05:26.728Z,1.88
2022-07-28T02:07:55.671Z,0.73
2022-07-28T02:10:23.703Z,1.38
2022-07-28T02:12:53.081Z,0.93
2022-07-28T02:15:21.855Z,0.60
2022-07-28T02:17:52.009Z,0.85
2022-07-28T02:20:38.618Z,2.53
2022-07-28T02:23:06.600Z,1.42
2022-07-28T02:25:35.289Z,1.92
2022-07-28T02:28:05.647Z,2.00
2022-07-28T02:30:38.233Z,2.22
2022-07-28T02:33:59.183Z,2.00
2022-07-28T02:36:20.374Z,3.38
2022-07-28T02:38:49.817Z,1.77
2022-07-28T02:41:25.787Z,1.77
2022-07-28T02:43:56.907Z,2.85
2022-07-28T02:46:47.004Z,2.65
2022-07-28T02:49:21.698Z,1.98
2022-07-28T02:51:51.462Z,1.65
2022-07-28T02:54:19.958Z,1.90
2022-07-28T02:56:53.110Z,1.92
2022-07-28T02:59:21.924Z,1.40
2022-07-28T03:01:50.937Z,2.05
2022-07-28T03:04:38.968Z,1.33
2022-07-28T03:07:06.779Z,3.00
2022-07-28T03:09:45.922Z,1.25
2022-07-28T03:12:13.777Z,1.70
2022-07-28T03:14:41.987Z,1.20
2022-07-28T03:17:09.254Z,1.83
2022-07-28T03:19:36.692Z,1.58
2022-07-28T03:22:04.941Z,1.45
2022-07-28T03:24:35.702Z,1.35
2022-07-28T03:27:26.203Z,1.65
2022-07-28T03:30:14.327Z,1.08
2022-07-28T03:32:49.395Z,1.42
2022-07-28T03:35:17.622Z,1.55
2022-07-28T03:38:01.298Z,1.30
2022-07-28T03:40:32.122Z,1.05
2022-07-28T03:43:21.426Z,1.05
2022-07-28T03:45:48.658Z,1.67
2022-07-28T03:48:15.671Z,1.80
2022-07-28T03:50:42.853Z,1.45
2022-07-28T03:53:19.632Z,1.27
2022-07-28T03:55:50.768Z,1.38
2022-07-28T03:58:22.262Z,1.30
2022-07-28T04:00:53.258Z,1.00
2022-07-28T04:03:36.635Z,0.90
2022-07-28T04:06:07.760Z,1.20
2022-07-28T04:08:35.215Z,1.27
2022-07-28T04:11:02.190Z,1.42
2022-07-28T04:13:32.044Z,2.78
2022-07-28T04:16:00.312Z,0.80
2022-07-28T04:18:27.312Z,2.13
2022-07-28T04:20:55.796Z,0.98
2022-07-28T04:23:24.089Z,0.70
2022-07-28T04:25:51.026Z,0.95
2022-07-28T04:28:36.411Z,1.90
2022-07-28T04:31:03.464Z,1.33
2022-07-28T04:33:30.856Z,0.90
2022-07-28T04:35:57.885Z,1.98
2022-07-28T04:38:43.746Z,1.80
2022-07-28T04:41:10.909Z,0.98
2022-07-28T04:43:38.756Z,1.05
2022-07-28T04:46:05.750Z,0.90
2022-07-28T04:48:32.664Z,2.30
2022-07-28T04:50:59.838Z,1.20
2022-07-28T04:53:28.467Z,1.67
2022-07-28T04:55:57.141Z,1.50
2022-07-28T04:58:24.724Z,3.15
2022-07-28T05:00:52.718Z,1.55
2022-07-28T05:03:38.369Z,2.13
2022-07-28T05:06:05.344Z,1.15
2022-07-28T05:08:32.210Z,1.48
2022-07-28T05:10:59.136Z,2.75
2022-07-28T05:13:30.262Z,1.98
2022-07-28T05:16:00.278Z,2.33
2022-07-28T05:18:27.433Z,1.40
2022-07-28T05:20:54.324Z,1.58
2022-07-28T05:23:21.196Z,1.00
2022-07-28T05:26:25.084Z,2.47
2022-07-28T05:28:52.055Z,2.00
2022-07-28T05:31:19.005Z,0.93
2022-07-28T05:33:46.014Z,1.10
2022-07-28T05:36:12.835Z,2.28
2022-07-28T05:38:39.750Z,2.85
2022-07-28T05:41:06.748Z,1.85
2022-07-28T05:43:37.659Z,1.23
2022-07-28T05:46:05.733Z,0.57
2022-07-28T05:48:33.671Z,0.63
2022-07-28T05:51:00.678Z,1.88
2022-07-28T05:56:11.872Z,1.50
2022-07-28T05:58:38.752Z,0.95
2022-07-28T06:01:05.710Z,1.40
2022-07-28T06:03:39.824Z,1.73
2022-07-28T06:06:16.395Z,1.38
2022-07-28T06:08:45.516Z,1.02
2022-07-28T06:11:22.374Z,0.70
2022-07-28T06:13:50.329Z,1.08
2022-07-28T06:16:18.490Z,0.95
2022-07-28T06:18:45.508Z,2.83
2022-07-28T06:21:12.314Z,1.90
2022-07-28T06:23:39.490Z,3.08
2022-07-28T06:26:06.336Z,0.85
2022-07-28T06:28:33.209Z,1.77
2022-07-28T06:31:00.114Z,0.93
2022-07-28T06:34:04.641Z,1.48
2022-07-28T06:36:31.654Z,0.40
2022-07-28T06:38:58.556Z,1.08
2022-07-28T06:41:25.452Z,3.88
2022-07-28T06:43:52.486Z,1.02
2022-07-28T06:46:19.808Z,0.65
2022-07-28T06:49:06.044Z,0.30
2022-07-28T06:51:33.107Z,0.55
2022-07-28T06:54:10.732Z,0.85
2022-07-28T06:56:56.927Z,0.47
2022-07-28T06:59:24.443Z,0.98
2022-07-28T07:01:51.600Z,0.68
2022-07-28T07:04:19.186Z,0.25
2022-07-28T07:06:46.374Z,0.35
2022-07-28T07:09:13.347Z,0.30
2022-07-28T07:12:00.053Z,0.30
2022-07-28T07:14:46.465Z,0.20
2022-07-28T07:17:13.467Z,0.20
2022-07-28T07:19:40.453Z,0.80
2022-07-28T07:22:07.383Z,0.28
2022-07-28T07:24:56.899Z,0.93
2022-07-28T07:27:24.638Z,0.93
2022-07-28T07:29:51.523Z,0.65
2022-07-28T07:32:18.405Z,0.73
2022-07-28T07:34:45.251Z,0.80
2022-07-28T07:37:13.844Z,0.35
2022-07-28T07:39:41.749Z,0.45
2022-07-28T07:42:09.326Z,2.67
2022-07-28T07:44:36.256Z,0.88
2022-07-28T07:47:03.427Z,0.65
2022-07-28T07:49:45.111Z,2.83
2022-07-28T07:52:13.964Z,0.30
2022-07-28T07:54:41.434Z,0.77
2022-07-28T07:57:08.390Z,1.77
2022-07-28T07:59:35.386Z,0.40
2022-07-28T08:02:20.770Z,0.43
2022-07-28T08:04:47.840Z,0.20
2022-07-28T08:07:15.312Z,2.03
2022-07-28T08:09:42.247Z,2.88
2022-07-28T08:12:09.308Z,1.08
2022-07-28T08:14:36.245Z,0.40
2022-07-28T08:17:03.183Z,1.23
2022-07-28T08:19:30.183Z,2.17
2022-07-28T08:21:57.054Z,0.22
2022-07-28T08:24:32.816Z,1.27
2022-07-28T08:27:01.897Z,0.95
2022-07-28T08:29:28.859Z,0.45
2022-07-28T08:31:56.051Z,0.90
2022-07-28T08:34:30.957Z,0.20
2022-07-28T08:37:02.670Z,1.67
2022-07-28T08:39:32.143Z,0.60
2022-07-28T08:42:19.566Z,1.80
2022-07-28T08:44:53.001Z,1.92
2022-07-28T08:47:58.736Z,0.95
2022-07-28T08:50:27.857Z,0.75
2022-07-28T08:52:56.762Z,0.22
2022-07-28T08:55:31.881Z,0.60
2022-07-28T08:58:00.437Z,0.80
2022-07-28T09:00:28.108Z,1.20
2022-07-28T09:02:55.608Z,1.05
2022-07-28T09:05:24.030Z,0.88
2022-07-28T09:07:54.910Z,0.75
2022-07-28T09:10:22.610Z,1.60
2022-07-28T09:12:49.547Z,0.95
2022-07-28T09:15:16.536Z,0.73
2022-07-28T09:17:43.399Z,1.00
2022-07-28T09:20:12.140Z,0.50
2022-07-28T09:23:42.132Z,1.63
2022-07-28T09:26:12.132Z,3.40
2022-07-28T09:28:53.827Z,1.60
2022-07-28T09:31:22.855Z,0.40
2022-07-28T09:34:06.393Z,0.57
2022-07-28T09:36:40.872Z,0.95
2022-07-28T09:39:08.617Z,2.05
2022-07-28T09:41:57.638Z,2.08
2022-07-28T09:44:27.055Z,0.20
2022-07-28T09:46:55.290Z,2.15
2022-07-28T09:49:40.007Z,1.77
2022-07-28T09:52:07.160Z,1.17
2022-07-28T09:55:09.378Z,0.77
2022-07-28T09:57:38.219Z,0.35
2022-07-28T10:00:12.294Z,0.63
2022-07-28T10:02:39.821Z,1.02
2022-07-28T10:05:07.560Z,0.95
2022-07-28T10:07:53.310Z,0.85
2022-07-28T10:10:20.946Z,0.50
2022-07-28T10:12:47.799Z,2.00
2022-07-28T10:15:35.642Z,1.35
2022-07-28T10:18:22.140Z,1.60
2022-07-28T10:23:38.256Z,0.40
2022-07-28T10:26:13.199Z,0.30
2022-07-28T10:29:05.504Z,1.27
2022-07-28T10:31:41.207Z,1.52
2022-07-28T10:34:16.467Z,2.53
2022-07-28T10:37:07.332Z,1.48
2022-07-28T10:39:44.676Z,1.15
2022-07-28T10:42:12.638Z,1.20
2022-07-28T10:44:41.678Z,0.55
2022-07-28T10:47:18.601Z,0.93
2022-07-28T10:49:49.107Z,1.05
2022-07-28T10:55:44.986Z,0.95
2022-07-28T10:58:25.048Z,0.73
2022-07-28T11:00:57.083Z,0.32
2022-07-28T11:03:45.161Z,1.70
2022-07-28T11:06:28.649Z,0.30
2022-07-28T11:09:20.701Z,0.28
2022-07-28T11:11:53.149Z,0.65
2022-07-28T11:14:24.419Z,0.82
2022-07-28T11:17:11.373Z,1.02
2022-07-28T11:20:24.665Z,1.20
2022-07-28T11:22:33.997Z,1.85
2022-07-28T11:25:18.618Z,0.77
2022-07-28T11:28:05.990Z,1.00
2022-07-28T11:30:44.906Z,1.40
2022-07-28T11:35:57.336Z,0.98
2022-07-28T11:38:24.461Z,5.53
2022-07-28T11:40:56.286Z,1.98
2022-07-28T11:43:35.581Z,1.35
2022-07-28T11:46:10.209Z,3.35
2022-07-28T11:48:40.234Z,1.00
2022-07-28T11:51:07.315Z,1.60
2022-07-28T11:53:53.190Z,0.88
2022-07-28T11:56:26.588Z,1.70
2022-07-28T11:58:58.660Z,0.68
2022-07-28T12:01:53.257Z,1.38
2022-07-28T12:04:20.688Z,2.70
2022-07-28T12:06:51.623Z,1.10
2022-07-28T12:12:23.417Z,1.52
2022-07-28T12:14:50.599Z,1.63
2022-07-28T12:17:17.604Z,2.90
2022-07-28T12:22:29.428Z,1.73
2022-07-28T12:25:00.169Z,1.55
2022-07-28T12:27:31.834Z,1.60
2022-07-28T12:30:00.324Z,2.38
2022-07-28T12:32:35.314Z,2.65
2022-07-28T12:35:02.848Z,6.40
2022-07-28T12:37:30.205Z,1.17
2022-07-28T12:39:57.860Z,1.48
2022-07-28T12:42:32.199Z,1.17
2022-07-28T12:45:07.632Z,1.15
2022-07-28T12:47:34.679Z,1.42
2022-07-28T12:50:10.174Z,2.55
2022-07-28T12:52:55.773Z,1.40
2022-07-28T12:55:25.676Z,0.52
2022-07-28T12:57:53.448Z,1.10
2022-07-28T13:00:23.987Z,3.40
2022-07-28T13:03:20.788Z,1.02
2022-07-28T13:06:02.930Z,1.15
2022-07-28T13:08:45.105Z,1.13
2022-07-28T13:11:42.077Z,0.75
2022-07-28T13:14:01.712Z,4.13
2022-07-28T13:16:29.860Z,3.58
2022-07-28T13:19:05.741Z,0.73
2022-07-28T13:21:57.345Z,1.13
2022-07-28T13:24:26.314Z,1.35
2022-07-28T13:26:53.181Z,2.40
2022-07-28T13:29:20.080Z,1.75
2022-07-28T13:31:47.033Z,1.95
2022-07-28T13:34:14.678Z,1.48
2022-07-28T13:36:42.128Z,0.50
2022-07-28T13:39:13.911Z,1.20
2022-07-28T13:41:56.643Z,2.83
2022-07-28T13:44:26.305Z,2.53
2022-07-28T13:46:53.563Z,4.28
2022-07-28T13:49:22.893Z,2.35
2022-07-28T13:51:51.275Z,2.95
2022-07-28T13:54:19.726Z,3.40
2022-07-28T13:57:10.918Z,2.53
2022-07-28T13:59:38.482Z,3.40
2022-07-28T14:02:05.723Z,2.67
2022-07-28T14:04:42.450Z,3.20
2022-07-28T14:07:13.035Z,2.58
2022-07-28T14:09:39.890Z,1.13
2022-07-28T14:12:07.763Z,1.55
2022-07-28T14:14:37.225Z,2.17
2022-07-28T14:17:19.680Z,4.10
2022-07-28T14:19:50.966Z,3.67
2022-07-28T14:22:17.839Z,1.23
2022-07-28T14:25:03.331Z,4.07
2022-07-28T14:27:30.663Z,1.52
2022-07-28T14:29:57.635Z,4.75
2022-07-28T14:32:24.620Z,3.20
2022-07-28T14:34:51.795Z,3.17
2022-07-28T14:37:20.724Z,4.10
2022-07-28T14:39:47.594Z,1.15
2022-07-28T14:42:14.602Z,1.98
2022-07-28T14:44:41.470Z,3.40
2022-07-28T14:47:08.582Z,6.05
2022-07-28T14:49:36.230Z,0.70
2022-07-28T14:52:04.838Z,5.53
2022-07-28T14:54:33.943Z,2.33
2022-07-28T14:57:00.898Z,2.50
2022-07-28T14:59:27.824Z,4.03
2022-07-28T15:01:54.907Z,3.28
2022-07-28T15:04:22.125Z,1.98
2022-07-28T15:06:49.062Z,4.75
2022-07-28T15:09:16.127Z,4.25
2022-07-28T15:11:44.757Z,3.00
2022-07-28T15:14:11.918Z,4.65
2022-07-28T15:16:42.714Z,3.58
2022-07-28T15:19:28.562Z,2.30
2022-07-28T15:21:55.476Z,4.20
2022-07-28T15:24:23.095Z,0.50
2022-07-28T15:26:49.981Z,3.00
2022-07-28T15:29:16.959Z,3.50
2022-07-28T15:31:45.206Z,1.02
2022-07-28T15:34:12.781Z,2.08
2022-07-28T15:36:40.192Z,2.28
2022-07-28T15:39:09.277Z,3.25
2022-07-28T15:41:36.222Z,4.78
2022-07-28T15:44:03.100Z,2.35
2022-07-28T15:46:30.207Z,3.85
2022-07-28T15:48:58.614Z,1.08
2022-07-28T15:51:26.258Z,5.13
2022-07-28T15:53:56.354Z,3.65
2022-07-28T15:56:23.518Z,5.10
2022-07-28T15:58:50.378Z,3.95
2022-07-28T16:01:36.155Z,2.85
2022-07-28T16:04:04.466Z,4.55
2022-07-28T16:06:51.570Z,5.28
2022-07-28T16:09:18.953Z,1.73
2022-07-28T16:12:07.550Z,4.03
2022-07-28T16:14:42.371Z,5.63
2022-07-28T16:17:09.945Z,2.03
2022-07-28T16:20:14.067Z,4.40
2022-07-28T16:22:41.172Z,3.75
2022-07-28T16:25:10.644Z,5.97
2022-07-28T16:27:43.873Z,5.57
2022-07-28T16:30:13.962Z,2.17
2022-07-28T16:32:59.639Z,2.45
2022-07-28T16:35:29.967Z,3.15
2022-07-28T16:37:57.096Z,2.08
2022-07-28T16:40:23.961Z,3.65
2022-07-28T16:42:53.227Z,1.95
2022-07-28T16:45:20.685Z,5.15
2022-07-28T16:47:48.809Z,2.53
2022-07-28T16:50:17.480Z,3.88
2022-07-28T16:52:44.345Z,5.35
2022-07-28T16:55:15.298Z,6.45
2022-07-28T16:57:45.299Z,3.47
2022-07-28T17:00:13.723Z,1.13
2022-07-28T17:02:42.586Z,3.72
2022-07-28T17:05:10.656Z,6.97
2022-07-28T17:07:45.253Z,3.58
2022-07-28T17:10:15.304Z,3.78
2022-07-28T17:12:49.691Z,5.18
2022-07-28T17:15:35.927Z,3.42
2022-07-28T17:18:03.021Z,8.00
2022-07-28T17:20:48.814Z,4.45
2022-07-28T17:23:15.824Z,1.80
2022-07-28T17:26:04.945Z,5.43
2022-07-28T17:28:29.731Z,2.40
2022-07-28T17:31:15.586Z,2.88
2022-07-28T17:33:42.495Z,2.90
2022-07-28T17:36:09.467Z,5.55
2022-07-28T17:38:36.433Z,5.20
2022-07-28T17:41:04.304Z,3.70
2022-07-28T17:43:32.394Z,3.65
2022-07-28T17:46:00.918Z,2.50
2022-07-28T17:48:28.554Z,3.35
2022-07-28T17:50:55.394Z,4.43
2022-07-28T17:53:23.647Z,3.55
2022-07-28T17:55:58.017Z,5.22
2022-07-28T17:58:32.188Z,2.70
2022-07-28T18:01:10.179Z,3.10
2022-07-28T18:03:57.608Z,3.88
2022-07-28T18:06:55.903Z,4.60
2022-07-28T18:09:22.822Z,4.93
2022-07-28T18:11:57.585Z,4.22
2022-07-28T18:14:29.958Z,5.97
2022-07-28T18:16:57.800Z,5.00
2022-07-28T18:19:25.579Z,4.55
2022-07-28T18:21:52.779Z,7.28
2022-07-28T18:24:22.208Z,6.68
2022-07-28T18:26:52.573Z,7.70
2022-07-28T18:29:21.620Z,6.97
2022-07-28T18:31:52.734Z,5.63
2022-07-28T18:34:23.308Z,10.30
2022-07-28T18:36:52.354Z,5.65
2022-07-28T18:42:04.116Z,6.97
2022-07-28T18:44:31.099Z,5.15
2022-07-28T18:47:16.697Z,2.92
2022-07-28T18:49:43.673Z,5.07
2022-07-28T18:52:10.585Z,4.90
2022-07-28T18:54:55.919Z,10.38
2022-07-28T18:57:23.715Z,3.63
2022-07-28T18:59:52.337Z,5.40
2022-07-28T19:02:38.189Z,4.97
2022-07-28T19:05:06.692Z,4.47
2022-07-28T19:07:33.877Z,7.30
2022-07-28T19:10:01.488Z,3.40
2022-07-28T19:12:31.216Z,8.75
2022-07-28T19:14:58.909Z,7.50
2022-07-28T19:17:26.491Z,9.43
2022-07-28T19:19:56.325Z,5.25
2022-07-28T19:22:24.411Z,6.10
2022-07-28T19:24:52.552Z,8.63
2022-07-28T19:30:08.534Z,7.18
2022-07-28T19:32:38.496Z,6.68
2022-07-28T19:35:25.051Z,12.18
2022-07-28T19:37:52.135Z,6.68
2022-07-28T19:40:18.953Z,11.35
2022-07-28T19:42:48.496Z,11.43
2022-07-28T19:45:15.864Z,9.98
2022-07-28T19:47:42.860Z,6.32
2022-07-28T19:50:28.370Z,7.60
2022-07-28T19:52:55.597Z,5.53
2022-07-28T19:55:50.715Z,5.63
2022-07-28T19:58:38.068Z,7.53
2022-07-28T20:01:06.186Z,6.60
2022-07-28T20:04:02.389Z,3.53
2022-07-28T20:06:24.692Z,4.75
2022-07-28T20:09:10.687Z,4.57
2022-07-28T20:11:39.015Z,5.07
2022-07-28T20:14:05.914Z,5.13
2022-07-28T20:16:33.061Z,5.28
2022-07-28T20:19:00.075Z,7.32
2022-07-28T20:22:04.576Z,5.93
2022-07-28T20:24:31.654Z,8.13
2022-07-28T20:27:00.814Z,7.05
2022-07-28T20:29:27.765Z,4.60
2022-07-28T20:32:13.267Z,5.00
2022-07-28T20:34:40.300Z,6.35
2022-07-28T20:37:27.922Z,3.58
2022-07-28T20:40:13.164Z,5.38
2022-07-28T20:42:40.255Z,7.68
2022-07-28T20:45:07.755Z,5.75
2022-07-28T20:47:35.031Z,3.13
2022-07-28T20:50:02.832Z,7.57
2022-07-28T20:52:30.324Z,3.40
2022-07-28T20:54:57.172Z,4.65
2022-07-28T20:57:24.108Z,4.53
2022-07-28T20:59:52.290Z,4.05
2022-07-28T21:02:23.273Z,5.25
2022-07-28T21:04:51.592Z,6.85
2022-07-28T21:07:59.839Z,4.60
2022-07-28T21:10:08.256Z,5.20
2022-07-28T21:12:37.235Z,7.93
2022-07-28T21:15:05.853Z,4.13
2022-07-28T21:17:32.971Z,8.32
2022-07-28T21:20:00.099Z,12.35
2022-07-28T21:22:27.082Z,3.45
2022-07-28T21:24:55.520Z,2.45
2022-07-28T21:27:23.412Z,4.35
2022-07-28T21:32:18.245Z,9.60
2022-07-28T21:35:04.020Z,3.42
2022-07-28T21:37:30.948Z,3.88
2022-07-28T21:39:59.828Z,3.33
2022-07-28T21:42:26.683Z,4.55
2022-07-28T21:44:53.577Z,6.20
2022-07-28T21:47:20.501Z,4.18
2022-07-28T21:49:47.396Z,8.05
2022-07-28T21:52:14.407Z,4.63
2022-07-28T21:54:41.305Z,3.85
2022-07-28T21:57:24.907Z,5.15
2022-07-28T21:59:53.871Z,5.72
2022-07-28T22:02:20.920Z,5.53
2022-07-28T22:04:51.318Z,3.33
2022-07-28T22:07:18.305Z,4.72
2022-07-28T22:09:45.239Z,4.63
2022-07-28T22:12:12.310Z,2.53
2022-07-28T22:14:57.673Z,5.72
2022-07-28T22:17:24.597Z,3.92
2022-07-28T22:19:51.476Z,3.58
2022-07-28T22:22:18.583Z,4.22
2022-07-28T22:24:45.999Z,5.25
2022-07-28T22:27:31.811Z,3.78
2022-07-28T22:29:58.922Z,3.83
2022-07-28T22:32:27.018Z,6.95
2022-07-28T22:34:57.695Z,4.57
2022-07-28T22:37:24.845Z,5.15
2022-07-28T22:39:51.954Z,3.50
2022-07-28T22:42:18.899Z,3.45
2022-07-28T22:44:45.833Z,3.83
2022-07-28T22:47:31.360Z,5.25
2022-07-28T22:49:58.483Z,5.32
2022-07-28T22:52:26.833Z,3.03
2022-07-28T22:54:54.797Z,2.67
2022-07-28T22:57:22.352Z,4.40
2022-07-28T22:59:51.286Z,4.15
2022-07-28T23:02:18.523Z,4.15
2022-07-28T23:04:51.435Z,3.72
2022-07-28T23:07:18.857Z,2.35
2022-07-28T23:09:46.482Z,2.90
2022-07-28T23:12:13.350Z,5.20
2022-07-28T23:14:40.174Z,3.70
2022-07-28T23:17:07.140Z,5.13
2022-07-28T23:19:33.998Z,5.50
2022-07-28T23:22:00.933Z,3.92
2022-07-28T23:24:27.874Z,4.28
2022-07-28T23:26:54.911Z,4.45
2022-07-28T23:29:22.393Z,6.43
2022-07-28T23:31:49.769Z,4.55
2022-07-28T23:34:16.978Z,7.18
2022-07-28T23:36:45.400Z,4.32
2022-07-28T23:39:12.952Z,5.07
2022-07-28T23:41:40.031Z,6.18
2022-07-28T23:44:07.042Z,4.10
2022-07-28T23:46:33.964Z,4.20
2022-07-28T23:49:00.946Z,4.22
2022-07-28T23:51:46.529Z,3.50
2022-07-28T23:54:15.052Z,4.35
2022-07-28T23:56:42.799Z,8.00
2022-07-28T23:59:13.763Z,3.83
